Terminal Aerodrome Forecast
Issued by NWS

Current Version | Previous Version | Text Only | Print | Product List | Glossary On
Versions: 1 2 3 4 5 6 7 8 9 10 11 12 13
000
FTUS46 KSEW 241100
TAFOLM
TAF
KOLM 241122Z 2412/2512 20012G22KT 5SM -RA BR SCT012 OVC030
      TEMPO 2412/2416 3SM RA BR BKN010 OVC025
     FM241600 21012G18KT 6SM -SHRA BR BKN022 BKN035
     FM242200 23012KT P6SM VCSH SCT025 OVC050
     FM250400 22007KT P6SM BKN035 BKN060=

USA.gov is the U.S. government's official web portal to all federal, state and local government web resources and services.